עמוד ראשי
METAR-TAF:

METAR-TAF

שדות תעופה :

מדריד-Getafe, ספרד

קו רוחב: 40-18N, קו אורך: 003-43W, גובה: 620מטר

תצפית מזג אוויר נוכחית

הדו"ח נערך לפני 41דקות, בשעה 17:00 UTC
רוח 5קשר מכיוון דרום/דרום-מערב
טמפרטורת 39 צלסיוס
לחות 13%
לחץ 1019 hPa
ראות 10 קילומטר או יותר
ללא עננים שבסיסם נמוך מ 5000 רגל או קומולונימבוס

METAR: LEGT 231700Z 21005KT CAVOK 39/06 Q1019

זמן: 19:41 (17:41 UTC)

תחזית

הדו"ח נערך לפני 41דקות, בשעה 17:00 UTC
תחזית בתוקף מ 23 ב 18 UTC עד 24 ב 18 UTC
רוח 5קשר מכיוון דרום-מערב
ראות 10 קילומטר או יותר
ללא עננים שבסיסם נמוך מ 5000 רגל או קומולונימבוס

TAF: LEGT 231700Z 2318/2418 22005KT CAVOK TX41/2415Z TN26/2406Z

תצפיות ותחזיות מזג אוויר לגבי יותר מ- 4,000 שדות תעופה ברחבי העולם. דוחות METAR ו- TAF.

התחנות הזמינות מסומנות בנקודות צהובות ואדומות על גבי המפה.

העבר את העכבר לנקודה הצבעונית על מנת לראות את שם התחנה.

לאחר מכן, לחץ כדי לראות את תוכן ואת תחזיות מזג האוויר.

כדי לשנות את המפה: לחץ על הכפתורים הירוקים עם הפלוס השחור כדי להתקרב; על הכפתור הירוק עם המקף כדי להתרחק; או בחיצים הירוקים למפות סמוכות.


METAR-TAF: